Thamesville, Canada
Current Conditions -  °F | °C
As of 7:00 PM on Monday 22 Dec 2014 (Local Time) from CYCK Reporting Station
Few Clouds Few Clouds  
Wind Chill: 27°   Ceiling: Unl
Heat Index: 36°   Visibility: 9mi
Dew Point: 34°   Wind: 14mph
Humidity: 93%   Direction: 100°E
Pressure: 29.95"   Gusts: NA
Location:  42.55°N, 81.97°W
Report Text: CYCK 230000Z AUTO 10012KT 9SM FEW140 02/01 A2995 RMK SLP148
Loading
Personal Weather Stations






























Interactive Weather Map New forecast layout! Learn more

10-Day Weather Forecast

Advertisements
Track Severe Weather on mobile